^^
Your Local Weather - Clay, NY Station Historical Data
Daily Summary for August 5, 2017 Units:  English    Metric   Both
« Previous Day
Next Day »
Daily Weekly Monthly Yearly Custom
  High: Low: Average:
Temperature: 70.1 °F 61.1 °F 65.8 °F
Dew Point: 63.9 °F 50.6 °F 57.9 °F
Humidity: 93% 62% 76%
Wind Speed: 7.0mph 0.0mph 2.2mph
Wind Gust: 12.0mph - -
Wind- - WSW
Pressure: 29.94 in 29.73 in -
Precipitation: 0.61 in    
Historical Graphs
 
 
Tabular Data for August 5, 2017
Time Temperature Dew Point Pressure Wind Wind Speed Wind Gust Humidity Rainfall Rate (Hourly) solar
00:04 66.6 °F 63.9 °F 29.74 in SE 1.0 mph 2.0 mph 91% 0.00 in 0 W/m2
00:10 66.5 °F 63.8 °F 29.74 in NE 1.0 mph 1.0 mph 91% 0.00 in 0 W/m2
00:15 66.4 °F 63.7 °F 29.74 in Calm   1.0 mph 91% 0.00 in 0 W/m2
00:22 66.3 °F 63.6 °F 29.73 in Calm     91% 0.00 in 0 W/m2
00:28 66.2 °F 63.5 °F 29.75 in Calm   2.0 mph 91% 0.00 in 0 W/m2
00:33 66.1 °F 63.4 °F 29.75 in West 3.0 mph 12.0 mph 91% 3.49 in 0 W/m2
00:40 66.0 °F 63.3 °F 29.77 in West 7.0 mph 7.0 mph 91% 1.13 in 0 W/m2
00:45 66.0 °F 63.0 °F 29.75 in South 7.0 mph 8.0 mph 90% 0.20 in 0 W/m2
00:52 66.3 °F 63.3 °F 29.75 in SSW 5.0 mph 6.0 mph 90% 0.06 in 0 W/m2
00:58 66.5 °F 63.2 °F 29.75 in SSE 4.0 mph 6.0 mph 89% 0.04 in 0 W/m2
01:03 66.7 °F 63.4 °F 29.75 in SW 3.0 mph 3.0 mph 89% 0.00 in 0 W/m2
01:10 66.7 °F 63.4 °F 29.75 in SSW 3.0 mph 3.0 mph 89% 0.17 in 0 W/m2
01:15 66.6 °F 63.3 °F 29.75 in South 3.0 mph 4.0 mph 89% 0.09 in 0 W/m2
01:22 66.4 °F 63.1 °F 29.75 in South 4.0 mph 6.0 mph 89% 0.15 in 0 W/m2
01:28 66.3 °F 63.3 °F 29.75 in SSW 3.0 mph 6.0 mph 90% 0.06 in 0 W/m2
01:34 66.1 °F 63.1 °F 29.75 in SSW 2.0 mph 3.0 mph 90% 0.04 in 0 W/m2
01:40 66.0 °F 63.0 °F 29.75 in SW 2.0 mph 2.0 mph 90% 0.04 in 0 W/m2
01:45 65.9 °F 63.2 °F 29.75 in SSE 2.0 mph 4.0 mph 91% 0.04 in 0 W/m2
01:52 65.8 °F 63.1 °F 29.75 in South 1.0 mph 2.0 mph 91% 0.00 in 0 W/m2
01:58 65.6 °F 62.9 °F 29.75 in South 1.0 mph 2.0 mph 91% 0.00 in 0 W/m2
02:04 65.6 °F 62.9 °F 29.75 in South 1.0 mph 2.0 mph 91% 0.00 in 0 W/m2
02:10 65.5 °F 62.8 °F 29.75 in SSW 1.0 mph 2.0 mph 91% 0.00 in 0 W/m2
02:15 65.5 °F 62.8 °F 29.75 in SSW 1.0 mph 2.0 mph 91% 0.00 in 0 W/m2
02:22 65.4 °F 62.7 °F 29.75 in Calm     91% 0.00 in 0 W/m2
02:28 65.3 °F 62.6 °F 29.75 in Calm     91% 0.00 in 0 W/m2
02:33 65.3 °F 62.9 °F 29.75 in Calm     92% 0.00 in 0 W/m2
02:35 65.2 °F 62.8 °F 29.75 in Calm     92% 0.00 in 0 W/m2
02:42 65.2 °F 62.8 °F 29.75 in Calm     92% 0.00 in 0 W/m2
02:48 65.2 °F 62.8 °F 29.75 in Calm     92% 0.00 in 0 W/m2
02:54 65.1 °F 62.7 °F 29.75 in Calm     92% 0.00 in 0 W/m2
03:00 65.1 °F 62.7 °F 29.74 in Calm     92% 0.00 in 0 W/m2
03:05 65.2 °F 62.8 °F 29.74 in Calm   1.0 mph 92% 0.00 in 0 W/m2
03:12 65.2 °F 63.1 °F 29.74 in Calm     93% 0.00 in 0 W/m2
03:18 65.2 °F 63.1 °F 29.74 in Calm   1.0 mph 93% 0.00 in 0 W/m2
03:24 65.3 °F 63.2 °F 29.74 in Calm     93% 0.00 in 0 W/m2
03:29 65.3 °F 63.2 °F 29.75 in SSE 1.0 mph 1.0 mph 93% 0.00 in 0 W/m2
03:35 65.3 °F 63.2 °F 29.75 in SSE 1.0 mph 1.0 mph 93% 0.00 in 0 W/m2
03:42 65.4 °F 63.3 °F 29.75 in Calm     93% 0.00 in 0 W/m2
03:48 65.4 °F 63.3 °F 29.75 in Calm   1.0 mph 93% 0.00 in 0 W/m2
03:53 65.2 °F 62.8 °F 29.75 in NW 1.0 mph 3.0 mph 92% 0.00 in 0 W/m2
03:59 64.3 °F 61.9 °F 29.76 in West 1.0 mph 3.0 mph 92% 0.00 in 0 W/m2
04:05 63.7 °F 61.0 °F 29.76 in WSW 1.0 mph 3.0 mph 91% 0.00 in 0 W/m2
04:12 63.4 °F 60.7 °F 29.75 in WSW 1.0 mph 1.0 mph 91% 0.00 in 0 W/m2
04:18 63.2 °F 60.5 °F 29.75 in Calm   1.0 mph 91% 0.00 in 0 W/m2
04:23 63.1 °F 60.4 °F 29.75 in SW 1.0 mph 5.0 mph 91% 0.00 in 0 W/m2
04:30 63.1 °F 60.1 °F 29.75 in WSW 1.0 mph 1.0 mph 90% 0.00 in 0 W/m2
04:35 63.1 °F 60.1 °F 29.75 in WSW 1.0 mph 3.0 mph 90% 0.00 in 0 W/m2
04:42 63.2 °F 60.2 °F 29.76 in WSW 1.0 mph 1.0 mph 90% 0.00 in 0 W/m2
04:48 63.2 °F 60.2 °F 29.76 in Calm   1.0 mph 90% 0.00 in 0 W/m2
04:54 63.3 °F 60.3 °F 29.76 in Calm   1.0 mph 90% 0.00 in 0 W/m2
04:59 63.3 °F 60.3 °F 29.76 in SW 1.0 mph 1.0 mph 90% 0.00 in 0 W/m2
05:05 63.5 °F 60.5 °F 29.76 in SW 1.0 mph 1.0 mph 90% 0.00 in 0 W/m2
05:12 63.5 °F 60.5 °F 29.76 in Calm     90% 0.00 in 0 W/m2
05:18 63.5 °F 60.5 °F 29.76 in Calm     90% 0.00 in 0 W/m2
05:24 63.5 °F 60.5 °F 29.76 in Calm     90% 0.00 in 0 W/m2
05:30 63.6 °F 60.9 °F 29.76 in Calm     91% 0.00 in 0 W/m2
05:35 63.6 °F 60.9 °F 29.77 in Calm     91% 0.00 in 0 W/m2
05:42 63.4 °F 60.7 °F 29.76 in Calm     91% 0.00 in 0 W/m2
05:48 63.2 °F 60.5 °F 29.76 in Calm     91% 0.00 in 0 W/m2
05:53 62.9 °F 60.2 °F 29.77 in Calm     91% 0.00 in 0 W/m2
06:00 62.6 °F 59.9 °F 29.77 in Calm     91% 0.00 in 0 W/m2
06:06 62.3 °F 59.6 °F 29.77 in Calm     91% 0.00 in 0 W/m2
06:12 62.0 °F 59.3 °F 29.77 in Calm     91% 0.00 in 0 W/m2
06:18 61.8 °F 59.1 °F 29.77 in Calm     91% 0.00 in 0 W/m2
06:23 61.6 °F 59.3 °F 29.77 in Calm     92% 0.00 in 5 W/m2
06:29 61.4 °F 59.1 °F 29.77 in Calm     92% 0.00 in 5 W/m2
06:36 61.3 °F 59.0 °F 29.77 in Calm     92% 0.00 in 7 W/m2
06:42 61.5 °F 59.5 °F 29.77 in WSW 1.0 mph 1.0 mph 93% 0.00 in 11 W/m2
06:48 61.5 °F 59.2 °F 29.77 in Calm   1.0 mph 92% 0.00 in 14 W/m2
06:53 61.4 °F 59.1 °F 29.78 in Calm   2.0 mph 92% 0.00 in 63 W/m2
07:00 61.6 °F 59.3 °F 29.78 in Calm     92% 0.00 in 127 W/m2
07:06 61.9 °F 59.5 °F 29.78 in Calm   2.0 mph 92% 0.00 in 149 W/m2
07:12 62.2 °F 59.5 °F 29.78 in WSW 1.0 mph 1.0 mph 91% 0.00 in 142 W/m2
07:18 62.4 °F 59.4 °F 29.78 in WSW 1.0 mph 1.0 mph 90% 0.00 in 53 W/m2
07:24 62.3 °F 59.0 °F 29.78 in WSW 1.0 mph 3.0 mph 89% 0.00 in 39 W/m2
07:29 62.3 °F 58.7 °F 29.78 in WSW 1.0 mph 4.0 mph 88% 0.00 in 53 W/m2
07:35 62.6 °F 59.0 °F 29.78 in SW 1.0 mph 4.0 mph 88% 0.00 in 229 W/m2
07:42 63.1 °F 59.2 °F 29.78 in WSW 1.0 mph 2.0 mph 87% 0.00 in 244 W/m2
07:48 63.6 °F 59.3 °F 29.78 in WSW 1.0 mph 4.0 mph 86% 0.00 in 260 W/m2
07:54 64.0 °F 59.4 °F 29.78 in WSW 2.0 mph 2.0 mph 85% 0.00 in 276 W/m2
07:59 64.3 °F 59.4 °F 29.78 in West 2.0 mph 3.0 mph 84% 0.00 in 294 W/m2
08:06 64.5 °F 58.9 °F 29.79 in WSW 2.0 mph 5.0 mph 82% 0.00 in 313 W/m2
08:12 64.7 °F 58.4 °F 29.79 in SW 4.0 mph 4.0 mph 80% 0.00 in 334 W/m2
08:18 64.9 °F 57.9 °F 29.79 in SW 4.0 mph 7.0 mph 78% 0.00 in 350 W/m2
08:23 65.0 °F 58.0 °F 29.79 in West 4.0 mph 4.0 mph 78% 0.00 in 264 W/m2
08:30 65.2 °F 58.2 °F 29.80 in SSW 3.0 mph 7.0 mph 78% 0.00 in 396 W/m2
08:35 65.5 °F 58.8 °F 29.80 in SW 4.0 mph 7.0 mph 79% 0.00 in 411 W/m2
08:42 65.9 °F 58.8 °F 29.80 in South 2.0 mph 4.0 mph 78% 0.00 in 431 W/m2
08:49 66.2 °F 58.0 °F 29.80 in SW 3.0 mph 3.0 mph 75% 0.00 in 455 W/m2
08:55 66.7 °F 58.9 °F 29.80 in SW 2.0 mph 5.0 mph 76% 0.00 in 475 W/m2
09:02 66.5 °F 58.0 °F 29.80 in SSW 3.0 mph 8.0 mph 74% 0.00 in 496 W/m2
09:08 66.7 °F 57.8 °F 29.80 in SW 5.0 mph 8.0 mph 73% 0.00 in 510 W/m2
09:13 67.0 °F 58.8 °F 29.80 in West 4.0 mph 4.0 mph 75% 0.00 in 529 W/m2
09:19 67.4 °F 58.4 °F 29.80 in SSW 3.0 mph 3.0 mph 73% 0.00 in 552 W/m2
09:25 67.7 °F 58.7 °F 29.80 in SW 3.0 mph 6.0 mph 73% 0.00 in 563 W/m2
09:32 67.4 °F 57.3 °F 29.80 in NNW 4.0 mph 4.0 mph 70% 0.00 in 584 W/m2
09:38 67.6 °F 58.2 °F 29.81 in SSW 4.0 mph 7.0 mph 72% 0.00 in 610 W/m2
09:43 68.0 °F 58.6 °F 29.81 in WSW 4.0 mph 4.0 mph 72% 0.00 in 585 W/m2
09:49 68.2 °F 58.8 °F 29.81 in WSW 3.0 mph 3.0 mph 72% 0.00 in 589 W/m2
09:56 68.1 °F 57.9 °F 29.82 in West 2.0 mph 3.0 mph 70% 0.00 in 751 W/m2
10:02 68.6 °F 58.4 °F 29.82 in WSW 2.0 mph 4.0 mph 70% 0.00 in 297 W/m2
10:08 68.7 °F 59.7 °F 29.82 in SW 2.0 mph 4.0 mph 73% 0.00 in 346 W/m2
10:13 68.7 °F 57.7 °F 29.82 in SW 3.0 mph 8.0 mph 68% 0.00 in 473 W/m2
10:19 67.9 °F 58.1 °F 29.82 in WSW 5.0 mph 5.0 mph 71% 0.00 in 318 W/m2
10:25 67.6 °F 57.5 °F 29.82 in WSW 5.0 mph 5.0 mph 70% 0.00 in 294 W/m2
10:32 67.5 °F 57.4 °F 29.83 in WSW 4.0 mph 4.0 mph 70% 0.00 in 357 W/m2
10:38 67.2 °F 57.1 °F 29.83 in SW 4.0 mph 10.0 mph 70% 0.00 in 137 W/m2
10:43 66.7 °F 57.0 °F 29.83 in SW 4.0 mph 8.0 mph 71% 0.00 in 135 W/m2
10:50 66.5 °F 57.6 °F 29.83 in SW 3.0 mph 3.0 mph 73% 0.00 in 264 W/m2
10:55 66.8 °F 57.1 °F 29.83 in SW 2.0 mph 7.0 mph 71% 0.00 in 330 W/m2
11:02 67.4 °F 57.7 °F 29.83 in WSW 4.0 mph 4.0 mph 71% 0.00 in 425 W/m2
11:08 68.3 °F 58.1 °F 29.83 in WSW 4.0 mph 5.0 mph 70% 0.00 in 455 W/m2
11:14 68.8 °F 58.6 °F 29.83 in WSW 3.0 mph 6.0 mph 70% 0.00 in 538 W/m2
11:19 68.9 °F 57.9 °F 29.83 in WSW 3.0 mph 7.0 mph 68% 0.00 in 264 W/m2
11:25 68.4 °F 57.0 °F 29.83 in SW 3.0 mph 7.0 mph 67% 0.00 in 125 W/m2
11:32 67.7 °F 56.8 °F 29.83 in SSW 3.0 mph 4.0 mph 68% 0.00 in 155 W/m2
11:38 67.5 °F 56.6 °F 29.83 in SW 4.0 mph 6.0 mph 68% 0.00 in 229 W/m2
11:43 67.7 °F 56.8 °F 29.83 in SW 4.0 mph 4.0 mph 68% 0.00 in 283 W/m2
11:49 67.9 °F 56.5 °F 29.82 in South 3.0 mph 6.0 mph 67% 0.00 in 272 W/m2
11:55 68.6 °F 56.8 °F 29.82 in SSW 5.0 mph 8.0 mph 66% 0.00 in 976 W/m2
12:02 69.1 °F 56.0 °F 29.82 in SW 6.0 mph 10.0 mph 63% 0.00 in 378 W/m2
12:08 69.1 °F 56.4 °F 29.82 in SW 6.0 mph 10.0 mph 64% 0.00 in 274 W/m2
12:14 68.7 °F 56.5 °F 29.83 in SW 4.0 mph 6.0 mph 65% 0.00 in 283 W/m2
12:19 68.5 °F 56.7 °F 29.82 in WNW 4.0 mph 4.0 mph 66% 0.00 in 171 W/m2
12:25 67.1 °F 56.6 °F 29.83 in WSW 5.0 mph 6.0 mph 69% 0.00 in 230 W/m2
12:32 66.5 °F 57.2 °F 29.83 in SW 3.0 mph 6.0 mph 72% 0.00 in 322 W/m2
12:38 67.2 °F 57.9 °F 29.83 in SW 2.0 mph 6.0 mph 72% 0.00 in 519 W/m2
12:44 68.1 °F 58.7 °F 29.82 in SSW 3.0 mph 3.0 mph 72% 0.00 in 568 W/m2
12:49 69.6 °F 59.4 °F 29.82 in SW 3.0 mph 6.0 mph 70% 0.00 in 1028 W/m2
12:55 70.0 °F 59.0 °F 29.82 in SE 4.0 mph 6.0 mph 68% 0.00 in 1030 W/m2
13:02 69.5 °F 58.9 °F 29.82 in SSW 5.0 mph 5.0 mph 69% 0.00 in 397 W/m2
13:08 69.8 °F 60.0 °F 29.82 in SW 4.0 mph 5.0 mph 71% 0.00 in 417 W/m2
13:14 70.1 °F 57.8 °F 29.82 in SSW 4.0 mph 5.0 mph 65% 0.00 in 294 W/m2
13:19 68.9 °F 57.5 °F 29.83 in WSW 5.0 mph 11.0 mph 67% 0.00 in 144 W/m2
13:25 67.2 °F 57.9 °F 29.83 in SW 4.0 mph 11.0 mph 72% 0.00 in 304 W/m2
13:32 66.7 °F 58.1 °F 29.83 in SW 3.0 mph 4.0 mph 74% 0.00 in 350 W/m2
13:38 66.9 °F 58.3 °F 29.83 in WSW 2.0 mph 4.0 mph 74% 0.00 in 156 W/m2
13:44 66.0 °F 58.6 °F 29.83 in SW 3.0 mph 10.0 mph 77% 0.00 in 204 W/m2
13:49 64.5 °F 57.8 °F 29.83 in SSW 5.0 mph 10.0 mph 79% 0.00 in 250 W/m2
13:55 63.6 °F 57.7 °F 29.83 in WSW 6.0 mph 10.0 mph 81% 0.00 in 399 W/m2
14:02 63.9 °F 58.0 °F 29.83 in South 5.0 mph 9.0 mph 81% 0.00 in 339 W/m2
14:08 64.5 °F 58.9 °F 29.83 in SSW 6.0 mph 10.0 mph 82% 0.00 in 657 W/m2
14:14 65.9 °F 59.9 °F 29.82 in SSW 4.0 mph 6.0 mph 81% 0.00 in 473 W/m2
14:19 66.3 °F 59.2 °F 29.82 in SW 3.0 mph 3.0 mph 78% 0.00 in 404 W/m2
14:25 66.4 °F 57.9 °F 29.83 in SW 3.0 mph 5.0 mph 74% 0.00 in 496 W/m2
14:32 66.3 °F 57.8 °F 29.83 in WSW 5.0 mph 6.0 mph 74% 0.00 in 450 W/m2
14:38 66.3 °F 57.4 °F 29.83 in WSW 5.0 mph 6.0 mph 73% 0.00 in 403 W/m2
14:43 66.3 °F 57.8 °F 29.82 in WSW 5.0 mph 7.0 mph 74% 0.00 in 360 W/m2
14:50 67.2 °F 59.0 °F 29.82 in WSW 4.0 mph 4.0 mph 75% 0.00 in 515 W/m2
14:55 67.9 °F 57.8 °F 29.82 in West 3.0 mph 4.0 mph 70% 0.00 in 536 W/m2
15:02 69.2 °F 59.0 °F 29.82 in SSE 4.0 mph 8.0 mph 70% 0.00 in 592 W/m2
15:08 69.8 °F 59.2 °F 29.82 in NW 4.0 mph 10.0 mph 69% 0.00 in 322 W/m2
15:13 69.3 °F 57.9 °F 29.82 in North 4.0 mph 4.0 mph 67% 0.00 in 301 W/m2
15:19 69.0 °F 57.2 °F 29.82 in WNW 4.0 mph 5.0 mph 66% 0.00 in 355 W/m2
15:32 69.4 °F 58.4 °F 29.82 in SW 2.0 mph 5.0 mph 68% 0.00 in 415 W/m2
15:38 69.8 °F 58.8 °F 29.82 in SSW 3.0 mph 6.0 mph 68% 0.00 in 1018 W/m2
15:44 69.1 °F 56.8 °F 29.83 in South 5.0 mph 8.0 mph 65% 0.00 in 274 W/m2
15:49 68.7 °F 56.9 °F 29.83 in West 5.0 mph 5.0 mph 66% 0.00 in 287 W/m2
15:55 68.8 °F 57.0 °F 29.83 in SW 3.0 mph 5.0 mph 66% 0.00 in 229 W/m2
16:02 68.6 °F 56.8 °F 29.83 in NNE 4.0 mph 4.0 mph 66% 0.00 in 218 W/m2
16:08 68.4 °F 56.6 °F 29.83 in WSW 4.0 mph 5.0 mph 66% 0.00 in 199 W/m2
16:13 68.1 °F 56.3 °F 29.83 in WSW 4.0 mph 4.0 mph 66% 0.00 in 137 W/m2
16:19 68.0 °F 56.6 °F 29.83 in West 3.0 mph 3.0 mph 67% 0.00 in 149 W/m2
16:25 67.8 °F 56.4 °F 29.84 in WNW 3.0 mph 7.0 mph 67% 0.00 in 95 W/m2
16:32 67.7 °F 55.9 °F 29.84 in SW 3.0 mph 10.0 mph 66% 0.00 in 77 W/m2
16:38 67.6 °F 55.8 °F 29.84 in SW 4.0 mph 10.0 mph 66% 0.00 in 227 W/m2
16:44 67.8 °F 55.6 °F 29.84 in WSW 4.0 mph 5.0 mph 65% 0.00 in 155 W/m2
16:49 67.9 °F 56.5 °F 29.84 in SW 3.0 mph 3.0 mph 67% 0.00 in 193 W/m2
16:55 68.2 °F 56.0 °F 29.84 in WSW 3.0 mph 4.0 mph 65% 0.00 in 211 W/m2
17:02 68.4 °F 56.2 °F 29.84 in SSW 3.0 mph 9.0 mph 65% 0.00 in 176 W/m2
17:08 68.3 °F 56.1 °F 29.84 in NW 3.0 mph 9.0 mph 65% 0.00 in 118 W/m2
17:14 68.3 °F 56.5 °F 29.84 in WSW 3.0 mph 4.0 mph 66% 0.00 in 146 W/m2
17:19 68.2 °F 56.0 °F 29.84 in SW 4.0 mph 4.0 mph 65% 0.00 in 134 W/m2
17:25 68.1 °F 55.9 °F 29.85 in WSW 5.0 mph 6.0 mph 65% 0.00 in 72 W/m2
17:32 67.9 °F 56.1 °F 29.85 in SSW 3.0 mph 4.0 mph 66% 0.00 in 109 W/m2
17:38 68.0 °F 57.0 °F 29.85 in WNW 2.0 mph 8.0 mph 68% 0.00 in 206 W/m2
17:43 68.1 °F 55.5 °F 29.85 in WNW 3.0 mph 6.0 mph 64% 0.00 in 195 W/m2
17:50 68.3 °F 55.6 °F 29.85 in WSW 4.0 mph 4.0 mph 64% 0.00 in 220 W/m2
17:55 69.0 °F 55.9 °F 29.85 in West 3.0 mph 6.0 mph 63% 0.00 in 77 W/m2
18:02 68.5 °F 55.4 °F 29.85 in SW 4.0 mph 4.0 mph 63% 0.00 in 120 W/m2
18:08 68.1 °F 55.9 °F 29.86 in WSW 3.0 mph 4.0 mph 65% 0.00 in 86 W/m2
18:13 68.1 °F 56.3 °F 29.86 in South 3.0 mph 6.0 mph 66% 0.00 in 148 W/m2
18:19 68.3 °F 56.5 °F 29.86 in WSW 3.0 mph 4.0 mph 66% 0.00 in 107 W/m2
18:25 68.5 °F 56.7 °F 29.86 in SW 1.0 mph 4.0 mph 66% 0.00 in 102 W/m2
18:32 68.2 °F 56.0 °F 29.86 in SW 3.0 mph 6.0 mph 65% 0.00 in 72 W/m2
18:38 67.8 °F 56.0 °F 29.86 in SW 4.0 mph 6.0 mph 66% 0.00 in 81 W/m2
18:43 67.6 °F 56.2 °F 29.86 in WSW 3.0 mph 4.0 mph 67% 0.00 in 53 W/m2
18:50 67.4 °F 56.1 °F 29.87 in SW 2.0 mph 10.0 mph 67% 0.00 in 25 W/m2
18:55 67.2 °F 55.9 °F 29.87 in WSW 4.0 mph 10.0 mph 67% 0.00 in 44 W/m2
19:02 67.1 °F 55.8 °F 29.87 in SW 4.0 mph 6.0 mph 67% 0.00 in 69 W/m2
19:08 67.1 °F 56.6 °F 29.87 in SW 2.0 mph 6.0 mph 69% 0.00 in 46 W/m2
19:13 67.0 °F 56.1 °F 29.87 in WSW 2.0 mph 3.0 mph 68% 0.00 in 46 W/m2
19:19 67.1 °F 56.2 °F 29.87 in WSW 2.0 mph 2.0 mph 68% 0.00 in 40 W/m2
19:25 67.1 °F 56.2 °F 29.87 in SSE 2.0 mph 3.0 mph 68% 0.00 in 46 W/m2
19:32 67.0 °F 56.1 °F 29.87 in WSW 1.0 mph 2.0 mph 68% 0.00 in 21 W/m2
19:38 66.9 °F 56.0 °F 29.88 in SW 1.0 mph 4.0 mph 68% 0.00 in 19 W/m2
19:49 66.6 °F 56.1 °F 29.88 in WSW 1.0 mph 1.0 mph 69% 0.00 in 9 W/m2
19:56 66.5 °F 56.0 °F 29.88 in Calm   1.0 mph 69% 0.00 in 14 W/m2
20:02 66.4 °F 55.9 °F 29.88 in WSW 1.0 mph 1.0 mph 69% 0.00 in 16 W/m2
20:08 66.5 °F 55.6 °F 29.89 in NNW 2.0 mph 4.0 mph 68% 0.00 in 11 W/m2
20:13 66.6 °F 55.3 °F 29.90 in NW 3.0 mph 3.0 mph 67% 0.00 in 11 W/m2
20:19 66.4 °F 55.5 °F 29.90 in WNW 1.0 mph 3.0 mph 68% 0.00 in 5 W/m2
20:26 66.3 °F 53.8 °F 29.90 in NW 2.0 mph 4.0 mph 64% 0.00 in 0 W/m2
20:32 66.2 °F 52.8 °F 29.90 in NW 2.0 mph 3.0 mph 62% 0.00 in 0 W/m2
20:38 65.9 °F 52.9 °F 29.90 in West 2.0 mph 3.0 mph 63% 0.00 in 0 W/m2
20:43 65.6 °F 52.2 °F 29.90 in NW 2.0 mph 3.0 mph 62% 0.00 in 0 W/m2
20:50 65.5 °F 52.6 °F 29.90 in SW 1.0 mph 5.0 mph 63% 0.00 in 0 W/m2
20:55 65.4 °F 52.0 °F 29.90 in West 1.0 mph 5.0 mph 62% 0.00 in 0 W/m2
21:02 65.6 °F 52.7 °F 29.91 in West 2.0 mph 2.0 mph 63% 0.00 in 0 W/m2
21:08 65.5 °F 52.6 °F 29.91 in SW 2.0 mph 2.0 mph 63% 0.00 in 0 W/m2
21:13 65.3 °F 52.4 °F 29.91 in West 2.0 mph 7.0 mph 63% 0.00 in 0 W/m2
21:20 65.1 °F 52.2 °F 29.91 in WNW 2.0 mph 2.0 mph 63% 0.00 in 0 W/m2
21:25 64.9 °F 52.4 °F 29.92 in WNW 2.0 mph 2.0 mph 64% 0.00 in 0 W/m2
21:32 64.5 °F 52.0 °F 29.92 in NW 1.0 mph 2.0 mph 64% 0.00 in 0 W/m2
21:38 64.3 °F 51.9 °F 29.92 in NW 1.0 mph 4.0 mph 64% 0.00 in 0 W/m2
21:44 64.1 °F 52.1 °F 29.92 in West 1.0 mph 3.0 mph 65% 0.00 in 0 W/m2
21:49 63.9 °F 51.9 °F 29.92 in WSW 1.0 mph 4.0 mph 65% 0.00 in 0 W/m2
21:55 64.0 °F 51.6 °F 29.92 in NNW 2.0 mph 4.0 mph 64% 0.00 in 0 W/m2
22:03 63.8 °F 51.8 °F 29.92 in SSW 1.0 mph 1.0 mph 65% 0.00 in 0 W/m2
22:09 63.5 °F 51.9 °F 29.92 in NW 1.0 mph 2.0 mph 66% 0.00 in 0 W/m2
22:15 63.3 °F 51.7 °F 29.93 in WNW 1.0 mph 2.0 mph 66% 0.00 in 0 W/m2
22:22 63.2 °F 51.6 °F 29.93 in West 1.0 mph 1.0 mph 66% 0.00 in 0 W/m2
22:28 63.0 °F 51.9 °F 29.93 in WNW 1.0 mph 1.0 mph 67% 0.00 in 0 W/m2
22:34 62.8 °F 51.7 °F 29.93 in WNW 1.0 mph 2.0 mph 67% 0.00 in 0 W/m2
22:39 62.6 °F 51.9 °F 29.93 in Calm     68% 0.00 in 0 W/m2
22:45 62.2 °F 51.9 °F 29.93 in NNW 1.0 mph 1.0 mph 69% 0.00 in 0 W/m2
22:52 62.0 °F 51.7 °F 29.93 in Calm   1.0 mph 69% 0.00 in 0 W/m2
22:58 61.8 °F 51.9 °F 29.93 in Calm   1.0 mph 70% 0.00 in 0 W/m2
23:03 62.1 °F 51.8 °F 29.93 in WNW 1.0 mph 3.0 mph 69% 0.00 in 0 W/m2
23:10 62.2 °F 51.5 °F 29.93 in NNE 2.0 mph 2.0 mph 68% 0.00 in 0 W/m2
23:15 62.3 °F 51.6 °F 29.93 in WNW 1.0 mph 2.0 mph 68% 0.00 in 0 W/m2
23:22 62.3 °F 50.8 °F 29.93 in NW 1.0 mph 2.0 mph 66% 0.00 in 0 W/m2
23:28 62.2 °F 51.1 °F 29.93 in NNW 1.0 mph 2.0 mph 67% 0.00 in 0 W/m2
23:33 61.8 °F 50.7 °F 29.93 in NNW 1.0 mph 2.0 mph 67% 0.00 in 0 W/m2
23:39 61.7 °F 51.0 °F 29.94 in NW 1.0 mph 1.0 mph 68% 0.00 in 0 W/m2
23:45 61.5 °F 50.8 °F 29.94 in NW 1.0 mph 2.0 mph 68% 0.00 in 0 W/m2
23:52 61.3 °F 50.6 °F 29.94 in NW 1.0 mph 1.0 mph 68% 0.00 in 0 W/m2
23:58 61.1 °F 50.8 °F 29.94 in Calm   2.0 mph 69% 0.00 in 0 W/m2
Country Meadow, Clay, NY, USA
Compliments of Weather Underground - 2 mb